Time;durP1;ratioP1;P1;durP2;ratioP2;P2;SDS_P1;SDS_P2;PMS_P1;PMS_P2;Temp;Humidity;BMP_temperature;BMP_pressure;BME280_temperature;BME280_humidity;BME280_pressure;Samples;Min_cycle;Max_cycle;Signal;HPM_P1;HPM_P2
2023/05/28 00:02:04;;;;;;;;;9.00;9.00;;;;;20.97;40.24;101508.53;6212991;22;61616;-59
2023/05/28 00:04:29;;;;;;;;;10.00;8.33;;;;;20.94;39.96;101506.94;6213831;22;45323;-59
2023/05/28 00:06:55;;;;;;;;;10.00;7.33;;;;;20.88;41.23;101507.44;6187352;22;45421;-59
2023/05/28 00:09:21;;;;;;;;;7.33;7.33;;;;;20.87;41.39;101513.88;6213970;22;45330;-59
2023/05/28 00:11:47;;;;;;;;;9.33;9.00;;;;;20.87;40.68;101508.47;6213341;22;46153;-59
2023/05/28 00:14:13;;;;;;;;;10.67;9.00;;;;;20.86;41.25;101506.72;6186736;22;45469;-60
2023/05/28 00:16:40;;;;;;;;;10.00;10.00;;;;;20.84;40.96;101502.44;6213175;22;45220;-59
2023/05/28 00:19:06;;;;;;;;;9.00;9.00;;;;;20.81;40.49;101500.84;6213764;22;45345;-59
2023/05/28 00:21:33;;;;;;;;;14.00;10.00;;;;;20.78;41.61;101495.66;6186836;22;45969;-59
2023/05/28 00:23:58;;;;;;;;;13.00;10.33;;;;;20.73;41.72;101501.47;6214015;22;45425;-59
2023/05/28 00:26:25;;;;;;;;;10.67;4.67;;;;;20.72;41.44;101501.59;6187574;22;45391;-59
2023/05/28 00:28:51;;;;;;;;;9.67;8.33;;;;;20.69;41.58;101504.50;6213517;22;45315;-60
2023/05/28 00:31:16;;;;;;;;;11.67;9.67;;;;;20.67;41.17;101501.94;6213318;22;59572;-60
2023/05/28 00:33:43;;;;;;;;;10.00;10.00;;;;;20.64;41.25;101494.94;6212772;22;45300;-60
2023/05/28 00:36:09;;;;;;;;;9.00;8.33;;;;;20.62;41.34;101493.34;6213364;22;45674;-60
2023/05/28 00:38:34;;;;;;;;;12.67;11.33;;;;;20.58;41.57;101492.72;6213593;22;45951;-60
2023/05/28 00:41:00;;;;;;;;;12.00;10.33;;;;;20.58;42.00;101497.28;6213110;22;45949;-60
2023/05/28 00:43:25;;;;;;;;;12.67;11.67;;;;;20.56;42.50;101500.13;6213470;22;45431;-60
2023/05/28 00:45:51;;;;;;;;;9.67;8.33;;;;;20.54;41.59;101501.22;6186818;22;45682;-59
2023/05/28 00:48:16;;;;;;;;;12.33;9.67;;;;;20.49;42.22;101502.47;6214020;22;45560;-60
2023/05/28 00:50:43;;;;;;;;;10.00;9.00;;;;;20.48;42.43;101503.44;6161705;22;46747;-60
2023/05/28 00:53:08;;;;;;;;;12.00;10.33;;;;;20.46;42.60;101500.00;6186143;22;45285;-60
2023/05/28 00:55:34;;;;;;;;;11.67;9.00;;;;;20.44;41.96;101501.09;6186760;22;45271;-60
2023/05/28 00:58:05;;;;;;;;;10.00;9.00;;;;;20.43;42.50;101496.72;6213510;22;45436;-60
2023/05/28 01:00:31;;;;;;;;;15.00;12.33;;;;;20.44;42.17;101495.69;6163042;22;45396;-59
2023/05/28 01:02:57;;;;;;;;;12.00;11.67;;;;;20.42;42.42;101495.84;6186746;22;45309;-60
2023/05/28 01:05:23;;;;;;;;;11.00;10.33;;;;;20.41;42.74;101493.25;6214249;22;45329;-60
2023/05/28 01:07:48;;;;;;;;;11.67;11.33;;;;;20.41;43.03;101488.72;6214091;22;45501;-59
2023/05/28 01:10:13;;;;;;;;;18.00;14.33;;;;;20.38;42.63;101490.81;6185933;22;46509;-59
2023/05/28 01:12:39;;;;;;;;;14.00;13.00;;;;;20.33;42.26;101494.72;6183074;22;62315;-59
2023/05/28 01:15:06;;;;;;;;;12.33;10.00;;;;;20.36;43.04;101503.56;6185637;22;45232;-58
2023/05/28 01:17:31;;;;;;;;;15.33;11.33;;;;;20.32;42.89;101501.13;6187281;22;45252;-59
2023/05/28 01:19:57;;;;;;;;;20.33;13.67;;;;;20.31;43.04;101499.41;6185034;22;64285;-59
2023/05/28 01:22:27;;;;;;;;;20.00;13.33;;;;;20.30;43.39;101505.78;6215061;22;53013;-58
2023/05/28 01:24:53;;;;;;;;;14.33;11.67;;;;;20.30;42.67;101511.19;6213541;22;45245;-58
2023/05/28 01:27:19;;;;;;;;;12.33;9.33;;;;;20.28;42.74;101502.34;6215320;22;45205;-59
2023/05/28 01:29:45;;;;;;;;;12.33;11.67;;;;;20.30;42.94;101504.94;6186879;22;45574;-58
2023/05/28 01:32:10;;;;;;;;;12.33;10.67;;;;;20.29;42.74;101508.63;6187639;22;45569;-59
2023/05/28 01:34:35;;;;;;;;;11.33;10.33;;;;;20.27;43.19;101505.16;6215504;22;45389;-59
2023/05/28 01:37:04;;;;;;;;;14.33;12.33;;;;;20.27;42.90;101507.88;6188035;22;45308;-58
2023/05/28 01:39:38;;;;;;;;;12.33;11.00;;;;;20.24;43.32;101505.44;6187985;22;45376;-59
2023/05/28 01:42:05;;;;;;;;;14.00;9.67;;;;;20.19;43.59;101502.22;6187576;22;45380;-58
2023/05/28 01:44:30;;;;;;;;;12.00;9.67;;;;;20.14;43.33;101500.75;6215134;22;45671;-58
2023/05/28 01:46:56;;;;;;;;;14.00;12.33;;;;;20.18;43.66;101504.09;6187815;22;48656;-59
2023/05/28 01:49:21;;;;;;;;;18.00;12.00;;;;;20.17;43.50;101500.50;6186327;22;72053;-58
2023/05/28 01:51:47;;;;;;;;;14.00;13.00;;;;;20.15;43.27;101507.00;6188613;22;45324;-60
2023/05/28 01:54:12;;;;;;;;;16.67;12.00;;;;;20.11;43.74;101503.69;6214883;22;45315;-58
2023/05/28 01:56:37;;;;;;;;;15.67;12.33;;;;;20.10;44.12;101509.22;6215250;22;45304;-58
2023/05/28 01:59:03;;;;;;;;;12.00;11.00;;;;;20.05;43.81;101506.03;6213356;22;62372;-59
2023/05/28 02:01:36;;;;;;;;;14.67;12.00;;;;;19.67;44.81;101503.50;6214456;22;72355;-58
2023/05/28 02:04:02;;;;;;;;;14.67;12.00;;;;;19.55;44.85;101495.47;6213844;22;45245;-58
2023/05/28 02:06:30;;;;;;;;;13.33;12.33;;;;;19.57;44.93;101493.50;6188413;22;45395;-60
2023/05/28 02:08:56;;;;;;;;;16.33;11.33;;;;;19.50;45.15;101498.53;6187229;22;47058;-60
2023/05/28 02:11:21;;;;;;;;;10.00;10.00;;;;;19.48;45.37;101500.50;6214999;22;45307;-60
2023/05/28 02:13:48;;;;;;;;;18.33;11.33;;;;;19.46;44.96;101505.13;6215394;22;45526;-60
2023/05/28 02:16:17;;;;;;;;;13.67;12.00;;;;;19.45;45.62;101503.41;6214861;22;45430;-60
2023/05/28 02:18:43;;;;;;;;;16.67;14.00;;;;;19.64;45.36;101508.25;6188595;22;45274;-60
2023/05/28 02:21:08;;;;;;;;;17.33;13.33;;;;;19.70;45.32;101506.91;6188272;22;45630;-60
2023/05/28 02:23:33;;;;;;;;;16.67;13.33;;;;;19.78;45.36;101510.75;6213329;22;53654;-60
2023/05/28 02:26:00;;;;;;;;;15.33;12.00;;;;;19.76;45.04;101507.28;6213178;22;63614;-60
2023/05/28 02:28:26;;;;;;;;;14.33;12.67;;;;;19.78;45.11;101509.91;6214816;22;47242;-60
2023/05/28 02:30:51;;;;;;;;;14.00;13.00;;;;;19.78;44.77;101510.75;6187616;22;45298;-60
2023/05/28 02:33:16;;;;;;;;;16.33;15.00;;;;;19.76;45.38;101503.75;6213470;22;67572;-60
2023/05/28 02:35:42;;;;;;;;;15.67;13.67;;;;;19.75;45.01;101507.41;6187293;22;64837;-60
2023/05/28 02:38:07;;;;;;;;;17.00;9.33;;;;;19.74;45.10;101503.88;6186473;22;72658;-59
2023/05/28 02:40:33;;;;;;;;;14.33;12.33;;;;;19.50;45.11;101509.31;6214044;22;45379;-60
2023/05/28 02:42:58;;;;;;;;;15.33;11.67;;;;;19.67;45.40;101500.78;6213480;22;60093;-59
2023/05/28 02:45:23;;;;;;;;;12.67;11.00;;;;;19.62;45.61;101499.41;6214812;22;51617;-60
2023/05/28 02:47:49;;;;;;;;;16.67;14.00;;;;;19.64;45.20;101506.41;6186526;22;70385;-60
2023/05/28 02:50:14;;;;;;;;;17.67;11.00;;;;;19.60;45.49;101493.28;6186905;22;56677;-60
2023/05/28 02:52:40;;;;;;;;;16.00;13.67;;;;;19.60;45.55;101501.38;6185694;22;68968;-60
2023/05/28 02:55:06;;;;;;;;;14.00;12.67;;;;;19.60;45.41;101504.09;6214478;22;45653;-59
2023/05/28 02:57:31;;;;;;;;;16.00;13.67;;;;;19.57;45.67;101502.47;6212367;22;46043;-60
2023/05/28 02:59:56;;;;;;;;;17.33;15.00;;;;;19.54;45.74;101499.16;6186340;22;68256;-60
2023/05/28 03:02:21;;;;;;;;;19.33;16.33;;;;;19.53;45.36;101500.13;6213157;22;63909;-60
2023/05/28 03:04:47;;;;;;;;;16.00;13.33;;;;;19.50;45.26;101495.81;6187094;22;58419;-60
2023/05/28 03:07:12;;;;;;;;;16.00;13.00;;;;;19.51;45.30;101501.09;6212235;22;68582;-60
2023/05/28 03:09:37;;;;;;;;;14.33;12.33;;;;;19.52;45.77;101510.06;6214075;22;49581;-60
2023/05/28 03:12:03;;;;;;;;;14.67;13.67;;;;;19.49;45.39;101505.75;6213510;22;45379;-60
2023/05/28 03:14:28;;;;;;;;;15.67;13.33;;;;;19.47;45.71;101505.00;6214738;22;45540;-60
2023/05/28 03:16:54;;;;;;;;;12.00;11.33;;;;;19.47;45.86;101504.16;6213585;22;46836;-60
2023/05/28 03:19:20;;;;;;;;;14.67;12.33;;;;;19.45;45.45;101504.28;6187756;22;45304;-59
2023/05/28 03:21:45;;;;;;;;;14.33;14.00;;;;;19.43;45.54;101500.84;6163192;22;45241;-60
2023/05/28 03:24:10;;;;;;;;;16.67;14.67;;;;;19.41;46.10;101499.22;6213253;22;62470;-60
2023/05/28 03:26:37;;;;;;;;;21.67;16.00;;;;;19.38;45.92;101499.47;6186454;22;50321;-59
2023/05/28 03:29:02;;;;;;;;;15.00;13.67;;;;;19.33;47.01;101499.81;6187187;22;45438;-59
2023/05/28 03:31:29;;;;;;;;;22.33;16.33;;;;;19.28;47.21;101502.88;6214290;22;49156;-60
2023/05/28 03:33:55;;;;;;;;;15.33;14.00;;;;;19.27;46.96;101494.91;6187585;22;45484;-60
2023/05/28 03:36:21;;;;;;;;;15.33;13.67;;;;;19.24;47.55;101495.13;6214280;22;45975;-60
2023/05/28 03:38:46;;;;;;;;;18.67;17.00;;;;;19.23;47.32;101493.41;6187225;22;45535;-60
2023/05/28 03:41:12;;;;;;;;;15.33;14.67;;;;;19.18;47.41;101491.91;6212687;22;45403;-60
2023/05/28 03:43:37;;;;;;;;;17.67;15.67;;;;;19.19;47.39;101495.50;6212887;22;45343;-59
2023/05/28 03:46:02;;;;;;;;;25.00;17.00;;;;;19.14;47.85;101498.53;6187385;22;46494;-60
2023/05/28 03:48:28;;;;;;;;;23.67;17.00;;;;;19.14;48.18;101498.53;6161187;22;65895;-60
2023/05/28 03:50:53;;;;;;;;;19.33;16.67;;;;;19.11;47.86;101495.19;6212933;22;63551;-59
2023/05/28 03:53:18;;;;;;;;;20.33;16.00;;;;;19.07;48.11;101497.25;6213738;22;63944;-59
2023/05/28 03:55:44;;;;;;;;;21.00;14.33;;;;;19.05;48.10;101493.81;6186664;22;71330;-60
2023/05/28 03:58:14;;;;;;;;;17.33;15.00;;;;;19.04;48.30;101505.56;6186038;22;64913;-59
2023/05/28 04:00:39;;;;;;;;;27.00;18.00;;;;;19.04;48.28;101515.50;6187525;22;45316;-60
2023/05/28 04:03:05;;;;;;;;;21.33;17.33;;;;;18.99;48.79;101505.06;6213876;22;45493;-60
2023/05/28 04:05:30;;;;;;;;;20.67;19.33;;;;;18.94;48.64;101505.41;6188033;22;45786;-59
2023/05/28 04:07:56;;;;;;;;;20.67;17.00;;;;;18.92;48.74;101507.34;6214431;22;45494;-60
2023/05/28 04:10:21;;;;;;;;;16.33;14.33;;;;;18.84;49.01;101507.03;6214731;22;45360;-60
2023/05/28 04:12:46;;;;;;;;;19.67;17.33;;;;;18.81;48.91;101509.94;6214530;22;45603;-60
2023/05/28 04:15:12;;;;;;;;;19.00;16.33;;;;;18.80;49.13;101508.25;6212859;22;71911;-60
2023/05/28 04:17:37;;;;;;;;;21.67;17.00;;;;;18.78;48.75;101504.78;6213842;22;45281;-60
2023/05/28 04:20:06;;;;;;;;;18.00;17.33;;;;;18.82;49.01;101511.66;6187791;22;45315;-59
2023/05/28 04:22:31;;;;;;;;;17.00;15.33;;;;;18.82;49.47;101503.59;6214387;22;45241;-60
2023/05/28 04:24:56;;;;;;;;;14.67;11.00;;;;;18.82;48.96;101511.66;6213426;22;59435;-60
2023/05/28 04:27:23;;;;;;;;;15.67;14.00;;;;;18.77;48.76;101503.06;6213502;22;45282;-60
2023/05/28 04:29:48;;;;;;;;;18.00;17.00;;;;;18.74;48.48;101516.78;6215020;22;45387;-60
2023/05/28 04:32:14;;;;;;;;;19.67;16.67;;;;;18.76;48.49;101513.00;6211700;22;45366;-60
2023/05/28 04:34:42;;;;;;;;;17.33;15.67;;;;;18.79;48.37;101507.38;6186693;22;66188;-60
2023/05/28 04:37:08;;;;;;;;;16.67;14.67;;;;;18.80;48.62;101511.78;6214159;22;45295;-60
2023/05/28 04:39:34;;;;;;;;;15.67;14.67;;;;;18.82;48.36;101511.66;6187272;22;45339;-59
2023/05/28 04:42:03;;;;;;;;;21.00;16.67;;;;;18.83;48.52;101506.16;6185319;22;45476;-59
2023/05/28 04:44:30;;;;;;;;;17.33;16.33;;;;;18.86;48.52;101513.16;6212781;22;45324;-59
2023/05/28 04:46:58;;;;;;;;;16.33;16.33;;;;;18.90;48.31;101516.53;6212706;22;45288;-59
2023/05/28 04:49:24;;;;;;;;;18.00;18.00;;;;;18.94;48.22;101520.72;6212462;22;45296;-60
2023/05/28 04:51:49;;;;;;;;;22.67;16.67;;;;;18.96;48.32;101519.63;6186025;22;45476;-59
2023/05/28 04:54:15;;;;;;;;;19.67;14.67;;;;;19.01;47.88;101527.38;6210716;22;45392;-59
2023/05/28 04:56:40;;;;;;;;;17.00;14.33;;;;;19.04;48.38;101524.44;6214437;22;45363;-60
2023/05/28 04:59:09;;;;;;;;;22.67;16.00;;;;;19.08;48.50;101533.19;6214022;22;52216;-60
2023/05/28 05:01:35;;;;;;;;;21.33;17.33;;;;;19.11;48.31;101533.81;6188323;22;45309;-60
2023/05/28 05:04:00;;;;;;;;;20.67;17.67;;;;;19.15;48.51;101537.13;6214419;22;46018;-60
2023/05/28 05:06:26;;;;;;;;;20.33;16.00;;;;;19.20;48.52;101537.63;6214915;22;45571;-59
2023/05/28 05:08:51;;;;;;;;;18.50;17.50;;;;;19.24;48.36;101539.16;6214346;22;45297;-59
2023/05/28 05:11:16;;;;;;;;;18.00;16.00;;;;;19.29;48.48;101536.09;6212404;22;64148;-59
2023/05/28 05:13:42;;;;;;;;;22.00;20.00;;;;;19.33;48.36;101534.88;6214299;22;45680;-60
2023/05/28 05:16:07;;;;;;;;;20.00;17.00;;;;;19.38;48.28;101545.34;6213475;22;53316;-59
2023/05/28 05:18:32;;;;;;;;;19.67;18.00;;;;;19.44;48.16;101542.19;6187611;22;62682;-59
2023/05/28 05:20:58;;;;;;;;;20.67;17.00;;;;;19.48;48.32;101533.72;6213595;22;64827;-59
2023/05/28 05:23:23;;;;;;;;;21.67;17.00;;;;;19.52;48.11;101531.66;6213719;22;45257;-59
2023/05/28 05:25:48;;;;;;;;;22.00;21.00;;;;;19.56;47.90;101530.44;6213280;22;55273;-60
2023/05/28 05:28:14;;;;;;;;;17.33;17.00;;;;;19.51;48.24;101530.78;6212653;22;58210;-59
2023/05/28 05:30:40;;;;;;;;;18.33;16.00;;;;;19.63;47.77;101534.41;6212839;22;60294;-60
2023/05/28 05:33:05;;;;;;;;;23.67;21.00;;;;;19.69;47.31;101532.19;6213862;22;46696;-59
2023/05/28 05:35:30;;;;;;;;;29.00;15.33;;;;;19.69;47.23;101546.53;6214431;22;68934;-59
2023/05/28 05:37:56;;;;;;;;;16.00;16.00;;;;;19.72;47.06;101540.06;6188008;22;45281;-59
2023/05/28 05:40:21;;;;;;;;;17.67;16.00;;;;;19.74;47.19;101547.06;6215215;22;45311;-60
2023/05/28 05:42:47;;;;;;;;;18.33;18.33;;;;;19.53;47.10;101546.88;6215176;22;46065;-59
2023/05/28 05:45:12;;;;;;;;;20.00;18.33;;;;;19.82;47.06;101530.28;6214813;22;45157;-60
2023/05/28 05:47:37;;;;;;;;;24.33;17.00;;;;;19.80;47.21;101540.31;6188296;22;45929;-59
2023/05/28 05:50:04;;;;;;;;;24.00;18.33;;;;;19.81;46.79;101537.50;6213974;22;45312;-59
2023/05/28 05:52:29;;;;;;;;;18.67;18.33;;;;;19.89;46.70;101544.16;6215589;22;46132;-59
2023/05/28 05:54:55;;;;;;;;;17.67;15.67;;;;;19.96;46.82;101540.88;6214158;22;45343;-59
2023/05/28 05:57:20;;;;;;;;;18.67;13.00;;;;;20.00;46.98;101539.66;6214395;22;59471;-60
2023/05/28 05:59:45;;;;;;;;;19.33;16.67;;;;;20.08;46.63;101541.75;6188222;22;52217;-60
2023/05/28 06:02:11;;;;;;;;;20.00;16.33;;;;;20.13;46.46;101546.81;6187756;22;47775;-60
2023/05/28 06:04:36;;;;;;;;;16.67;14.33;;;;;20.13;46.48;101542.25;6214985;22;45407;-60
2023/05/28 06:07:03;;;;;;;;;21.00;19.33;;;;;20.19;45.96;101540.88;6212471;22;66705;-60
2023/05/28 06:09:29;;;;;;;;;18.67;17.33;;;;;20.28;45.94;101544.72;6189020;22;45309;-59
2023/05/28 06:11:55;;;;;;;;;22.67;17.33;;;;;20.33;46.09;101545.19;6214177;22;46185;-59
2023/05/28 06:14:21;;;;;;;;;17.33;16.67;;;;;20.46;45.75;101542.38;6215187;22;45665;-60
2023/05/28 06:16:46;;;;;;;;;19.00;16.00;;;;;20.47;45.56;101539.53;6215148;22;45319;-60
2023/05/28 06:19:11;;;;;;;;;23.00;18.33;;;;;20.62;45.40;101542.00;6187193;22;45321;-60
2023/05/28 06:21:37;;;;;;;;;18.00;16.00;;;;;20.75;45.07;101544.59;6214712;22;56566;-59
2023/05/28 06:24:03;;;;;;;;;20.67;17.00;;;;;20.95;45.14;101537.53;6214077;22;45305;-59
2023/05/28 06:26:28;;;;;;;;;17.33;15.67;;;;;20.98;45.00;101534.59;6215207;22;45760;-60
2023/05/28 06:28:54;;;;;;;;;20.33;18.33;;;;;21.34;44.80;101532.50;6214428;22;45387;-60
2023/05/28 06:31:19;;;;;;;;;24.67;18.67;;;;;21.52;44.60;101534.63;6214607;22;46033;-60
2023/05/28 06:33:45;;;;;;;;;20.33;19.67;;;;;22.28;44.07;101531.69;6215074;22;45409;-60
2023/05/28 06:36:10;;;;;;;;;23.33;19.00;;;;;23.56;42.60;101533.72;6215115;22;45261;-59
2023/05/28 06:38:36;;;;;;;;;20.33;19.33;;;;;24.99;40.55;101529.06;6214787;22;45661;-60
2023/05/28 06:41:01;;;;;;;;;22.33;16.00;;;;;26.05;39.75;101524.72;6212879;22;45366;-60
2023/05/28 06:43:27;;;;;;;;;15.33;15.33;;;;;27.63;36.79;101525.00;6214470;22;45359;-60
2023/05/28 06:45:52;;;;;;;;;20.33;18.00;;;;;28.84;35.92;101530.47;6214128;22;55019;-60
2023/05/28 06:48:17;;;;;;;;;19.33;17.67;;;;;29.96;31.28;101531.84;6214894;22;57042;-60
2023/05/28 06:50:43;;;;;;;;;21.67;16.33;;;;;30.79;29.44;101527.06;6213559;22;69104;-60
2023/05/28 06:53:08;;;;;;;;;15.33;15.00;;;;;31.47;31.26;101534.97;6213973;22;61279;-60
2023/05/28 06:55:33;;;;;;;;;18.00;17.00;;;;;31.93;30.28;101538.28;6214375;22;45754;-60
2023/05/28 06:57:59;;;;;;;;;19.33;16.00;;;;;32.54;29.92;101531.25;6212753;22;69758;-59
2023/05/28 07:00:24;;;;;;;;;26.67;17.67;;;;;33.12;28.90;101534.41;6185262;22;45507;-58
2023/05/28 07:02:49;;;;;;;;;20.33;17.67;;;;;33.75;27.99;101532.34;6212437;22;69680;-58
2023/05/28 07:05:15;;;;;;;;;15.00;15.00;;;;;34.72;27.33;101542.72;6187272;22;45430;-60
2023/05/28 07:07:40;;;;;;;;;18.00;13.00;;;;;35.23;25.86;101533.53;6215400;22;45399;-58
2023/05/28 07:10:07;;;;;;;;;16.33;15.00;;;;;35.78;25.94;101535.63;6214601;22;45974;-58
2023/05/28 07:12:32;;;;;;;;;17.33;13.33;;;;;36.33;25.00;101542.31;6215165;22;45359;-60
2023/05/28 07:14:57;;;;;;;;;13.67;13.67;;;;;37.00;24.78;101535.94;6186879;22;45636;-60
2023/05/28 07:17:23;;;;;;;;;17.00;13.33;;;;;37.67;23.69;101537.63;6212652;22;45431;-58
2023/05/28 07:19:48;;;;;;;;;17.33;15.00;;;;;38.19;23.67;101536.91;6213209;22;66249;-59
2023/05/28 07:22:13;;;;;;;;;17.00;14.67;;;;;38.64;22.76;101542.81;6186198;22;45432;-59
2023/05/28 07:24:39;;;;;;;;;19.33;16.00;;;;;39.51;22.66;101538.03;6213493;22;67135;-59
2023/05/28 07:27:04;;;;;;;;;16.33;12.00;;;;;40.17;21.46;101545.75;6212694;22;61686;-58
2023/05/28 07:29:30;;;;;;;;;18.00;17.00;;;;;40.57;21.19;101544.56;6186988;22;45790;-59
2023/05/28 07:31:55;;;;;;;;;14.67;13.00;;;;;40.95;20.21;101537.19;6212479;22;45512;-59
2023/05/28 07:34:21;;;;;;;;;16.33;14.33;;;;;41.41;19.98;101541.50;6215398;22;45451;-59
2023/05/28 07:36:46;;;;;;;;;15.33;15.33;;;;;41.58;19.64;101545.00;6215368;22;45414;-59
2023/05/28 07:39:11;;;;;;;;;16.33;14.67;;;;;42.09;19.13;101541.69;6212073;22;71750;-59
2023/05/28 07:41:37;;;;;;;;;15.33;12.67;;;;;42.56;19.23;101544.72;6214121;22;45329;-59
2023/05/28 07:44:03;;;;;;;;;13.67;12.33;;;;;43.16;18.08;101538.72;6214304;22;45233;-59
2023/05/28 07:46:29;;;;;;;;;15.00;14.67;;;;;43.49;17.45;101537.28;6213500;22;45316;-59
2023/05/28 07:48:54;;;;;;;;;9.25;7.25;;;;;43.66;16.48;101534.19;6212908;22;45714;-57
2023/05/28 07:51:19;;;;;;;;;13.33;11.67;;;;;43.71;15.96;101545.38;6214580;22;49344;-59
2023/05/28 07:53:45;;;;;;;;;13.33;12.67;;;;;43.98;16.83;101541.44;6213901;22;62269;-59
2023/05/28 07:56:11;;;;;;;;;12.00;9.67;;;;;44.38;16.37;101542.41;6188115;22;45337;-59
2023/05/28 07:58:36;;;;;;;;;4.67;3.00;;;;;44.85;15.95;101539.31;6214771;22;46638;-59
2023/05/28 08:01:02;;;;;;;;;13.00;11.00;;;;;45.35;15.45;101530.81;6214456;22;45201;-59
2023/05/28 08:03:27;;;;;;;;;12.33;10.67;;;;;45.58;15.59;101538.47;6214733;22;45687;-59
2023/05/28 08:05:54;;;;;;;;;13.33;11.33;;;;;45.94;15.22;101533.63;6213123;22;45323;-59
2023/05/28 08:08:19;;;;;;;;;14.00;12.00;;;;;46.36;15.12;101540.41;6213398;22;45683;-59
2023/05/28 08:10:45;;;;;;;;;15.33;11.67;;;;;46.52;14.87;101538.19;6213786;22;45431;-59
2023/05/28 08:13:10;;;;;;;;;12.67;11.67;;;;;46.93;14.17;101531.97;6186201;22;48711;-59
2023/05/28 08:15:36;;;;;;;;;9.67;9.67;;;;;47.57;13.80;101530.63;6214426;22;45406;-59
2023/05/28 08:18:02;;;;;;;;;13.67;12.00;;;;;47.80;13.71;101528.75;6214350;22;46367;-59
2023/05/28 08:20:29;;;;;;;;;10.33;9.67;;;;;48.24;13.64;101527.28;6188074;22;45390;-59
2023/05/28 08:22:54;;;;;;;;;11.33;11.33;;;;;48.61;12.87;101528.19;6186772;22;45285;-59
2023/05/28 08:25:19;;;;;;;;;12.67;11.33;;;;;48.72;13.33;101528.75;6214185;22;45556;-59
2023/05/28 08:27:45;;;;;;;;;11.00;11.00;;;;;49.06;12.04;101532.19;6186162;22;67958;-59
2023/05/28 08:30:11;;;;;;;;;13.67;12.00;;;;;48.96;11.96;101524.81;6186754;22;45248;-59
2023/05/28 08:32:36;;;;;;;;;3.50;1.00;;;;;49.24;11.36;101519.84;6188463;22;45336;-59
2023/05/28 08:35:02;;;;;;;;;7.75;7.25;;;;;49.55;11.00;101519.03;6214546;22;45490;-59
2023/05/28 08:37:28;;;;;;;;;10.50;9.50;;;;;50.12;11.22;101515.44;6214711;22;46396;-59
2023/05/28 08:39:54;;;;;;;;;16.00;11.67;;;;;50.68;11.40;101514.81;6158926;22;46523;-59
2023/05/28 08:42:19;;;;;;;;;9.00;9.00;;;;;50.74;10.28;101515.50;6213851;22;45904;-58
2023/05/28 08:44:45;;;;;;;;;14.67;10.33;;;;;50.29;10.19;101508.97;6214430;22;45335;-66
2023/05/28 08:47:12;;;;;;;;;13.33;10.33;;;;;49.17;10.63;101503.34;6213650;22;46455;-67
2023/05/28 08:49:41;;;;;;;;;8.25;8.25;;;;;48.64;11.02;101504.97;6186897;22;45300;-66
2023/05/28 08:52:08;;;;;;;;;13.00;9.00;;;;;48.48;11.61;101509.28;6213765;22;45392;-67
2023/05/28 08:54:34;;;;;;;;;12.25;9.50;;;;;48.16;11.00;101506.31;6188633;22;45817;-67
2023/05/28 08:57:00;;;;;;;;;11.25;9.25;;;;;47.87;11.51;101503.84;6186517;22;46204;-67
2023/05/28 08:59:27;;;;;;;;;14.00;9.67;;;;;47.89;11.21;101497.88;6186508;22;45444;-67
2023/05/28 09:01:52;;;;;;;;;10.67;10.67;;;;;47.41;11.63;101502.72;6161715;22;45732;-67
2023/05/28 09:04:18;;;;;;;;;12.00;12.00;;;;;47.21;11.47;101493.53;6187913;22;64519;-67
2023/05/28 09:06:43;;;;;;;;;9.00;9.00;;;;;47.06;11.43;101493.81;6214508;22;64072;-67
2023/05/28 09:09:09;;;;;;;;;10.33;10.33;;;;;47.09;11.48;101495.97;6176966;22;56447;-67
2023/05/28 09:11:34;;;;;;;;;13.67;10.67;;;;;46.98;11.46;101494.47;6186991;22;45263;-67
2023/05/28 09:14:08;;;;;;;;;13.67;10.67;;;;;46.85;11.38;101493.28;6157695;22;45412;-67
2023/05/28 09:16:33;;;;;;;;;10.33;9.33;;;;;46.76;11.91;101487.53;6214633;22;46198;-67
2023/05/28 09:19:04;;;;;;;;;13.67;12.33;;;;;46.75;12.00;101490.66;6185697;22;70671;-67
2023/05/28 09:21:29;;;;;;;;;10.00;10.00;;;;;46.58;11.66;101499.59;6214520;22;45633;-68
2023/05/28 09:23:55;;;;;;;;;12.00;10.67;;;;;46.52;11.75;101491.25;6186427;22;45899;-68
2023/05/28 09:26:20;;;;;;;;;9.00;8.00;;;;;46.45;11.39;101498.38;6186975;22;47015;-68
2023/05/28 09:28:46;;;;;;;;;16.00;9.33;;;;;46.62;11.81;101498.66;6161747;22;45344;-69
2023/05/28 09:31:11;;;;;;;;;10.33;9.33;;;;;47.10;11.35;101491.22;6186648;22;45372;-68
2023/05/28 09:33:45;;;;;;;;;10.67;10.33;;;;;46.99;11.07;101493.31;6212585;22;64978;-69
2023/05/28 09:36:11;;;;;;;;;10.67;10.33;;;;;46.98;11.44;101483.22;6185738;22;46920;-68
2023/05/28 09:38:40;;;;;;;;;14.00;10.00;;;;;46.79;11.57;101491.69;6214379;22;45315;-67
2023/05/28 09:41:09;;;;;;;;;12.00;10.00;;;;;46.75;12.33;101491.47;6211703;22;45497;-67
2023/05/28 09:43:37;;;;;;;;;8.33;8.33;;;;;47.15;12.07;101479.84;6185802;22;45548;-67
2023/05/28 09:46:08;;;;;;;;;13.00;9.67;;;;;47.24;11.29;101479.97;6211150;22;70010;-67
2023/05/28 09:48:34;;;;;;;;;8.50;8.50;;;;;47.28;11.77;101478.22;6185593;22;45400;-61
2023/05/28 09:51:10;;;;;;;;;11.33;9.33;;;;;47.35;11.37;101470.19;6211591;22;56148;-69
2023/05/28 09:53:39;;;;;;;;;9.67;6.33;;;;;47.67;11.59;101480.56;6186139;22;45722;-66
2023/05/28 09:56:06;;;;;;;;;10.67;9.00;;;;;47.56;11.51;101478.25;6212569;22;45248;-69
2023/05/28 09:58:34;;;;;;;;;11.00;9.75;;;;;47.36;11.63;101480.31;6185836;22;45444;-69
2023/05/28 10:01:04;;;;;;;;;12.25;10.25;;;;;47.44;11.42;101475.97;6212751;22;45269;-70
2023/05/28 10:03:47;;;;;;;;;11.00;10.00;;;;;47.65;10.93;101482.00;6187070;22;45287;-69
2023/05/28 10:06:16;;;;;;;;;13.67;10.00;;;;;47.51;11.59;101473.56;6185087;22;46405;-67
2023/05/28 10:08:43;;;;;;;;;10.33;8.33;;;;;47.83;11.27;101464.19;6184668;22;45328;-66
2023/05/28 10:11:09;;;;;;;;;11.00;8.33;;;;;47.80;11.41;101459.19;6211312;22;45426;-66
2023/05/28 10:13:35;;;;;;;;;13.00;11.00;;;;;47.66;10.88;101455.53;6185536;22;45706;-66
2023/05/28 10:16:00;;;;;;;;;13.00;10.33;;;;;47.40;11.39;101463.63;6212244;22;46491;-66
2023/05/28 10:18:26;;;;;;;;;9.00;8.67;;;;;47.44;11.11;101465.53;6179901;22;45630;-66
2023/05/28 10:20:51;;;;;;;;;8.33;8.33;;;;;47.45;11.67;101458.75;6183187;22;61668;-66
2023/05/28 10:23:18;;;;;;;;;11.67;9.00;;;;;47.91;10.68;101458.97;6209938;22;45499;-67
2023/05/28 10:25:44;;;;;;;;;11.00;9.00;;;;;47.95;10.64;101466.47;6184732;22;47686;-70
2023/05/28 10:28:14;;;;;;;;;8.00;8.00;;;;;48.33;10.88;101459.72;6183240;22;45241;-66
2023/05/28 10:30:39;;;;;;;;;10.75;8.25;;;;;48.70;9.72;101460.56;6163898;22;1118476;-68
2023/05/28 10:33:07;;;;;;;;;6.00;6.00;;;;;48.93;10.24;101460.56;6186237;22;45398;-70
2023/05/28 10:35:34;;;;;;;;;9.00;9.00;;;;;48.92;10.52;101456.06;6187449;22;46904;-69
2023/05/28 10:38:07;;;;;;;;;9.00;7.33;;;;;48.62;10.61;101464.13;6187867;22;45440;-69
2023/05/28 10:40:39;;;;;;;;;8.25;7.50;;;;;48.59;9.64;101459.13;6188345;22;45360;-71
2023/05/28 10:43:04;;;;;;;;;8.25;7.50;;;;;48.21;9.64;101465.09;6185692;22;45338;-70
2023/05/28 10:45:37;;;;;;;;;8.00;8.00;;;;;48.09;9.67;101465.63;6187738;22;45819;-70
2023/05/28 10:48:02;;;;;;;;;7.50;7.50;;;;;48.04;10.46;101466.56;6187728;22;45389;-70
2023/05/28 10:50:27;;;;;;;;;10.33;8.33;;;;;48.12;10.49;101448.06;6188140;22;45383;-70
2023/05/28 10:53:08;;;;;;;;;7.50;7.50;;;;;48.36;10.59;101462.75;6186440;22;64114;-70
2023/05/28 10:55:50;;;;;;;;;9.67;8.33;;;;;48.74;10.04;101447.47;6161914;22;48852;-70
2023/05/28 10:58:36;;;;;;;;;8.67;7.00;;;;;48.96;9.72;101442.97;6187363;22;45356;-70
2023/05/28 11:01:05;;;;;;;;;8.33;6.00;;;;;49.47;9.48;101440.75;6159580;22;45366;-70
2023/05/28 11:03:54;;;;;;;;;11.67;9.00;;;;;49.51;9.76;101441.75;6187498;22;45508;-67
2023/05/28 11:06:19;;;;;;;;;12.00;8.00;;;;;49.46;9.15;101437.06;6186821;22;47086;-67
2023/05/28 11:08:47;;;;;;;;;8.00;4.50;;;;;49.48;10.53;101451.72;6186940;22;45348;-67